createdAt,value
2019-02-23T00:28:49.247Z,20.40
2019-02-23T00:42:11.980Z,20.40
2019-02-23T00:55:34.842Z,20.40
2019-02-23T01:08:57.620Z,20.40
2019-02-23T01:22:20.420Z,20.40
2019-02-23T01:35:43.228Z,20.50
2019-02-23T01:49:06.050Z,20.50
2019-02-23T02:15:30.546Z,20.50
2019-02-23T02:28:37.737Z,20.50
2019-02-23T02:41:44.901Z,20.50
2019-02-23T02:54:52.090Z,20.50
2019-02-23T03:07:59.238Z,20.40
2019-02-23T03:21:06.443Z,20.50
2019-02-23T03:34:30.267Z,20.50
2019-02-23T03:47:53.131Z,20.50
2019-02-23T04:14:17.537Z,20.40
2019-02-23T04:27:24.696Z,20.40
2019-02-23T04:40:31.858Z,20.50
2019-02-23T04:53:39.026Z,20.50
2019-02-23T05:06:46.178Z,20.50
2019-02-23T05:19:53.344Z,20.40
2019-02-23T05:33:17.323Z,20.40
2019-02-23T05:46:40.167Z,20.40
2019-02-23T06:00:02.952Z,20.40
2019-02-23T06:13:25.767Z,20.40
2019-02-23T06:26:48.598Z,20.40
2019-02-23T06:40:11.410Z,20.40
2019-02-23T06:53:34.268Z,20.40
2019-02-23T07:06:57.044Z,20.40
2019-02-23T07:20:19.880Z,20.30
2019-02-23T07:33:42.690Z,20.30
2019-02-23T07:47:05.512Z,18.70
2019-02-23T08:00:28.304Z,18.40
2019-02-23T08:13:51.131Z,19.50
2019-02-23T08:27:13.893Z,19.90
2019-02-23T08:40:36.771Z,20.10
2019-02-23T08:53:59.577Z,20.20
2019-02-23T09:07:22.495Z,20.30
2019-02-23T09:33:46.824Z,20.40
2019-02-23T09:46:53.963Z,20.40
2019-02-23T10:00:01.133Z,20.20
2019-02-23T10:13:08.334Z,20.20
2019-02-23T10:26:15.505Z,20.20
2019-02-23T10:39:22.633Z,20.20
2019-02-23T10:52:46.587Z,20.40
2019-02-23T11:06:09.405Z,20.50
2019-02-23T11:32:33.891Z,20.50
2019-02-23T11:45:41.062Z,20.60
2019-02-23T11:58:48.223Z,20.60
2019-02-23T12:11:55.458Z,20.60
2019-02-23T12:25:02.636Z,20.70
2019-02-23T12:38:09.838Z,20.70
2019-02-23T12:51:33.640Z,20.60
2019-02-23T13:04:56.535Z,20.70
2019-02-23T13:18:19.268Z,20.70
2019-02-23T13:31:42.093Z,20.80
2019-02-23T13:45:04.936Z,20.80
2019-02-23T13:58:27.706Z,20.80
2019-02-23T14:24:52.241Z,20.80
2019-02-23T14:37:59.381Z,20.80
2019-02-23T14:51:06.529Z,20.80
2019-02-23T15:04:13.736Z,20.90
2019-02-23T15:17:20.867Z,20.90
2019-02-23T15:30:29.713Z,20.90
2019-02-23T15:43:51.986Z,20.90
2019-02-23T15:57:14.759Z,21.00
2019-02-23T16:24:12.405Z,21.00
2019-02-23T16:37:19.615Z,20.90
2019-02-23T16:50:26.771Z,20.90
2019-02-23T17:03:33.924Z,20.90
2019-02-23T17:16:41.092Z,20.80
2019-02-23T17:42:50.530Z,20.80
2019-02-23T17:55:57.735Z,20.80
2019-02-23T18:09:04.908Z,20.80
2019-02-23T18:22:12.048Z,20.80
2019-02-23T18:35:19.251Z,20.70
2019-02-23T18:48:26.403Z,20.70
2019-02-23T19:01:50.309Z,20.60
2019-02-23T19:15:13.164Z,20.70
2019-02-23T19:28:42.911Z,20.70
2019-02-23T19:41:58.807Z,20.70
2019-02-23T19:55:21.578Z,20.60
2019-02-23T20:08:44.412Z,20.50
2019-02-23T20:22:07.263Z,20.30
2019-02-23T20:35:30.006Z,20.10
2019-02-23T20:48:52.871Z,19.90
2019-02-23T21:02:15.658Z,19.90
2019-02-23T21:28:40.101Z,19.90
2019-02-23T21:41:47.269Z,20.10
2019-02-23T21:54:54.430Z,20.30
2019-02-23T22:08:01.723Z,20.50
2019-02-23T22:21:08.905Z,20.60
2019-02-23T22:34:16.134Z,20.50
2019-02-23T22:47:39.883Z,20.50
2019-02-23T23:01:02.728Z,20.50
2019-02-23T23:14:25.547Z,20.50
2019-02-23T23:27:49.078Z,20.60
2019-02-23T23:41:11.141Z,20.60
2019-02-23T23:54:33.985Z,20.50
